Time;durP1;ratioP1;P1;durP2;ratioP2;P2;SDS_P1;SDS_P2;PMS_P1;PMS_P2;Temp;Humidity;BMP_temperature;BMP_pressure;BME280_temperature;BME280_humidity;BME280_pressure;Samples;Min_cycle;Max_cycle;Signal;HPM_P1;HPM_P2
2023/06/16 00:01:39;;;;;;;;;;;;;;;14.05;64.66;100793.98;105447;1300;67406;-88
2023/06/16 00:04:27;;;;;;;;;;;;;;;14.07;64.72;100790.46;105477;1300;72227;-88
2023/06/16 00:07:33;;;;;;;;;;;;;;;14.06;64.60;100783.21;105548;1298;60384;-89
2023/06/16 00:10:19;;;;;;;;;;;;;;;14.04;64.79;100779.64;105625;1299;59767;-89
2023/06/16 00:13:07;;;;;;;;;;;;;;;14.06;64.75;100787.02;105494;1303;74107;-89
2023/06/16 00:15:54;;;;;;;;;;;;;;;14.09;64.74;100784.16;105484;1300;67275;-89
2023/06/16 00:18:58;;;;;;;;;;;;;;;14.10;64.71;100782.25;105495;1299;72515;-88
2023/06/16 00:21:45;;;;;;;;;;;;;;;14.09;64.79;100771.88;105483;1299;59213;-88
2023/06/16 00:24:32;;;;;;;;;;;;;;;14.09;64.71;100770.13;105541;1299;60108;-88
2023/06/16 00:27:18;;;;;;;;;;;;;;;14.08;64.71;100766.86;105453;1299;74215;-88
2023/06/16 00:30:28;;;;;;;;;;;;;;;14.09;64.76;100765.80;105484;1300;69175;-89
2023/06/16 00:33:15;;;;;;;;;;;;;;;14.05;64.78;100764.02;105507;1299;71239;-89
2023/06/16 00:36:02;;;;;;;;;;;;;;;14.02;64.82;100765.50;105609;1299;59930;-89
2023/06/16 00:38:48;;;;;;;;;;;;;;;14.02;64.96;100762.91;105557;1298;59918;-88
2023/06/16 00:41:35;;;;;;;;;;;;;;;14.04;64.97;100757.48;105487;1301;73969;-89
2023/06/16 00:44:21;;;;;;;;;;;;;;;14.07;64.98;100754.41;105491;1300;67252;-89
2023/06/16 00:47:08;;;;;;;;;;;;;;;14.11;65.04;100754.48;105479;1301;72464;-89
2023/06/16 00:49:54;;;;;;;;;;;;;;;14.13;65.10;100754.23;105491;1300;59879;-89
2023/06/16 00:52:41;;;;;;;;;;;;;;;14.13;65.03;100754.58;105643;1299;60029;-89
2023/06/16 00:55:28;;;;;;;;;;;;;;;14.10;65.04;100753.48;105619;1300;74734;-89
2023/06/16 00:58:17;;;;;;;;;;;;;;;14.10;65.08;100753.30;105540;1299;68179;-89
2023/06/16 01:01:03;;;;;;;;;;;;;;;14.12;65.11;100754.80;105468;1299;71095;-89
2023/06/16 01:03:50;;;;;;;;;;;;;;;14.12;65.13;100755.48;105363;1299;60098;-89
2023/06/16 01:06:58;;;;;;;;;;;;;;;14.12;65.15;100756.88;105525;1299;59809;-89
2023/06/16 01:09:44;;;;;;;;;;;;;;;14.15;65.15;100756.27;104897;1305;75396;-89
2023/06/16 01:12:50;;;;;;;;;;;;;;;14.17;65.13;100758.29;104880;1306;67428;-89
2023/06/16 01:15:37;;;;;;;;;;;;;;;14.18;65.00;100760.52;104069;1314;72549;-89
2023/06/16 01:18:34;;;;;;;;;;;;;;;14.17;65.12;100757.42;104141;1313;59630;-89
2023/06/16 01:21:40;;;;;;;;;;;;;;;14.18;65.21;100755.65;104199;1314;59873;-89
2023/06/16 01:24:27;;;;;;;;;;;;;;;14.20;65.25;100756.98;104071;1317;75410;-89
2023/06/16 01:27:21;;;;;;;;;;;;;;;14.22;65.30;100756.40;104152;1314;67238;-89
2023/06/16 01:30:28;;;;;;;;;;;;;;;14.25;65.28;100754.77;104042;1314;71968;-88
2023/06/16 01:33:15;;;;;;;;;;;;;;;14.27;65.26;100755.91;104026;1314;59913;-89
2023/06/16 01:36:03;;;;;;;;;;;;;;;14.28;65.23;100749.84;104084;1313;59990;-89
2023/06/16 01:38:50;;;;;;;;;;;;;;;14.28;65.27;100746.70;104166;1313;74104;-89
2023/06/16 01:41:40;;;;;;;;;;;;;;;14.29;65.34;100749.80;104105;1314;67512;-89
2023/06/16 01:44:30;;;;;;;;;;;;;;;14.32;65.33;100747.48;104107;1314;71993;-89
2023/06/16 01:47:18;;;;;;;;;;;;;;;14.32;65.37;100749.37;104475;1309;60276;-88
2023/06/16 01:50:05;;;;;;;;;;;;;;;14.31;65.42;100751.82;104708;1308;59966;-89
2023/06/16 01:52:53;;;;;;;;;;;;;;;14.30;65.43;100747.69;104887;1305;73234;-89
2023/06/16 01:56:07;;;;;;;;;;;;;;;14.30;65.33;100748.89;105201;1302;67396;-89
2023/06/16 01:58:55;;;;;;;;;;;;;;;14.25;65.41;100747.83;105284;1306;71518;-89
2023/06/16 02:02:04;;;;;;;;;;;;;;;14.24;65.46;100748.38;105267;1302;60389;-88
2023/06/16 02:04:51;;;;;;;;;;;;;;;14.25;65.53;100747.30;105217;1308;59994;-89
2023/06/16 02:07:38;;;;;;;;;;;;;;;14.26;65.45;100746.05;105227;1303;75463;-89
2023/06/16 02:10:45;;;;;;;;;;;;;;;14.26;65.53;100742.95;105224;1302;68942;-89
2023/06/16 02:13:39;;;;;;;;;;;;;;;14.26;65.51;100741.73;105233;1305;71355;-89
2023/06/16 02:16:26;;;;;;;;;;;;;;;14.29;65.57;100738.70;105280;1302;59780;-88
2023/06/16 02:19:13;;;;;;;;;;;;;;;14.32;65.59;100733.74;105248;1301;60502;-89
2023/06/16 02:21:59;;;;;;;;;;;;;;;14.33;65.58;100734.23;105206;1303;73954;-89
2023/06/16 02:24:46;;;;;;;;;;;;;;;14.32;65.63;100732.19;105057;1303;203175;-89
2023/06/16 02:27:32;;;;;;;;;;;;;;;14.34;65.55;100730.77;104914;1305;73076;-89
2023/06/16 02:30:21;;;;;;;;;;;;;;;14.37;65.56;100731.55;105139;1303;59776;-89
2023/06/16 02:33:07;;;;;;;;;;;;;;;14.39;65.63;100729.20;105322;1302;59853;-88
2023/06/16 02:35:53;;;;;;;;;;;;;;;14.40;65.53;100734.38;105272;1302;74299;-89
2023/06/16 02:38:40;;;;;;;;;;;;;;;14.39;65.59;100733.57;105307;1302;67424;-89
2023/06/16 02:42:02;;;;;;;;;;;;;;;14.32;65.72;100732.39;105269;1302;71242;-89
2023/06/16 02:44:49;;;;;;;;;;;;;;;14.29;65.72;100734.20;105321;1302;59849;-90
2023/06/16 02:47:40;;;;;;;;;;;;;;;14.28;65.82;100732.66;105309;1303;59937;-89
2023/06/16 02:50:27;;;;;;;;;;;;;;;14.28;65.84;100737.02;105413;1300;75159;-89
2023/06/16 02:53:14;;;;;;;;;;;;;;;14.30;65.83;100735.36;105279;1302;68664;-89
2023/06/16 02:56:20;;;;;;;;;;;;;;;14.34;65.85;100738.20;105270;1302;72328;-89
2023/06/16 02:59:34;;;;;;;;;;;;;;;14.37;66.00;100738.11;105537;1299;59234;-89
2023/06/16 03:02:22;;;;;;;;;;;;;;;14.40;66.06;100737.34;105552;1298;61392;-89
2023/06/16 03:05:09;;;;;;;;;;;;;;;14.41;66.07;100736.80;105474;1299;74136;-89
2023/06/16 03:07:56;;;;;;;;;;;;;;;14.44;66.18;100735.85;105482;1297;67234;-89
2023/06/16 03:10:47;;;;;;;;;;;;;;;14.49;66.09;100732.59;105555;1297;71485;-88
2023/06/16 03:13:53;;;;;;;;;;;;;;;14.53;66.10;100729.33;105457;1300;60083;-89
2023/06/16 03:16:44;;;;;;;;;;;;;;;14.56;66.18;100724.38;105599;1298;59846;-89
2023/06/16 03:19:30;;;;;;;;;;;;;;;14.59;66.16;100728.61;105438;1300;74783;-90
2023/06/16 03:22:16;;;;;;;;;;;;;;;14.63;66.24;100728.66;105473;1299;67334;-89
2023/06/16 03:25:15;;;;;;;;;;;;;;;14.66;66.21;100729.09;105518;1298;72389;-89
2023/06/16 03:28:23;;;;;;;;;;;;;;;14.69;66.32;100726.91;105573;1299;60954;-90
2023/06/16 03:31:10;;;;;;;;;;;;;;;14.73;66.34;100729.05;105537;1299;59755;-89
2023/06/16 03:34:17;;;;;;;;;;;;;;;14.78;66.32;100728.73;105521;1298;74310;-90
2023/06/16 03:37:03;;;;;;;;;;;;;;;14.83;66.26;100728.54;105625;1300;66258;-89
2023/06/16 03:40:09;;;;;;;;;;;;;;;14.88;66.19;100732.02;105553;1299;71468;-89
2023/06/16 03:43:15;;;;;;;;;;;;;;;14.91;66.26;100728.48;105637;1299;60186;-90
2023/06/16 03:46:21;;;;;;;;;;;;;;;14.92;66.31;100728.09;105580;1299;59765;-90
2023/06/16 03:49:27;;;;;;;;;;;;;;;14.97;66.37;100731.25;105670;1298;75002;-90
2023/06/16 03:52:33;;;;;;;;;;;;;;;15.01;66.25;100731.46;105600;1298;67420;-89
2023/06/16 03:55:41;;;;;;;;;;;;;;;15.05;66.22;100731.68;105627;1299;71493;-89
2023/06/16 03:58:49;;;;;;;;;;;;;;;15.07;66.23;100734.04;105508;1297;60152;-90
2023/06/16 04:02:10;;;;;;;;;;;;;;;15.09;66.25;100735.16;105541;1299;60310;-90
2023/06/16 04:05:17;;;;;;;;;;;;;;;15.10;66.29;100729.56;105631;1298;74193;-90
2023/06/16 04:08:05;;;;;;;;;;;;;;;15.12;66.35;100733.14;105630;1299;67475;-90
2023/06/16 04:11:07;;;;;;;;;;;;;;;15.11;66.30;100733.67;105531;1299;72156;-89
2023/06/16 04:13:54;;;;;;;;;;;;;;;15.14;66.37;100732.90;105465;1300;59823;-90
2023/06/16 04:16:42;;;;;;;;;;;;;;;15.22;66.41;100728.66;105601;1298;59424;-89
2023/06/16 04:19:28;;;;;;;;;;;;;;;15.28;66.29;100724.29;105523;1299;74080;-89
2023/06/16 04:22:18;;;;;;;;;;;;;;;15.34;66.50;100718.53;105589;1299;68532;-89
2023/06/16 04:25:25;;;;;;;;;;;;;;;15.48;66.46;100713.71;105107;1299;71204;-90
2023/06/16 04:28:14;;;;;;;;;;;;;;;15.76;66.44;100719.66;105593;1299;59945;-89
2023/06/16 04:31:21;;;;;;;;;;;;;;;15.95;66.27;100717.42;105591;1299;59733;-89
2023/06/16 04:34:18;;;;;;;;;;;;;;;16.00;66.14;100718.11;105482;1300;74250;-90
2023/06/16 04:37:43;;;;;;;;;;;;;;;16.08;66.15;100720.95;105508;1300;67273;-90
2023/06/16 04:40:49;;;;;;;;;;;;;;;16.24;66.10;100720.13;105576;1298;71363;-90
2023/06/16 04:43:55;;;;;;;;;;;;;;;16.40;66.32;100722.31;105465;1299;59774;-90
2023/06/16 04:46:41;;;;;;;;;;;;;;;16.61;66.35;100718.39;105593;1299;60352;-89
2023/06/16 04:49:27;;;;;;;;;;;;;;;16.78;66.24;100714.05;105516;1299;74228;-88
2023/06/16 04:52:13;;;;;;;;;;;;;;;16.91;66.33;100715.42;105479;1298;67192;-88
2023/06/16 04:54:59;;;;;;;;;;;;;;;17.02;66.13;100716.88;105524;1297;72441;-88
2023/06/16 04:57:45;;;;;;;;;;;;;;;17.12;66.00;100712.98;105600;1299;59776;-87
2023/06/16 05:00:31;;;;;;;;;;;;;;;17.20;66.04;100706.20;105465;1297;60285;-88
2023/06/16 05:03:17;;;;;;;;;;;;;;;17.28;65.95;100707.60;105508;1300;75471;-88
2023/06/16 05:06:03;;;;;;;;;;;;;;;17.34;66.01;100712.04;105500;1300;67419;-88
2023/06/16 05:08:50;;;;;;;;;;;;;;;17.37;65.95;100708.61;105468;1299;72589;-88
2023/06/16 05:11:36;;;;;;;;;;;;;;;17.42;65.99;100712.93;105467;1299;60226;-88
2023/06/16 05:14:22;;;;;;;;;;;;;;;17.45;65.97;100716.64;105492;1299;60284;-88
2023/06/16 05:17:09;;;;;;;;;;;;;;;17.46;65.85;100720.42;105497;1299;74064;-88
2023/06/16 05:19:55;;;;;;;;;;;;;;;17.46;65.84;100721.14;105481;1298;67456;-87
2023/06/16 05:22:41;;;;;;;;;;;;;;;17.47;65.75;100722.84;105491;1300;72889;-88
2023/06/16 05:25:27;;;;;;;;;;;;;;;17.49;65.75;100723.62;105435;1302;60125;-88
2023/06/16 05:28:13;;;;;;;;;;;;;;;17.52;65.86;100724.70;105573;1298;59828;-88
2023/06/16 05:30:59;;;;;;;;;;;;;;;17.54;65.82;100724.08;105529;1297;75343;-88
2023/06/16 05:33:45;;;;;;;;;;;;;;;17.58;65.81;100724.98;105468;1299;67552;-88
2023/06/16 05:36:34;;;;;;;;;;;;;;;17.62;65.76;100726.00;105442;1299;71551;-88
2023/06/16 05:39:20;;;;;;;;;;;;;;;17.66;65.75;100730.58;105427;1297;60248;-87
2023/06/16 05:42:06;;;;;;;;;;;;;;;17.69;65.87;100731.47;105467;1297;60502;-87
2023/06/16 05:44:52;;;;;;;;;;;;;;;17.73;65.86;100731.61;105539;1299;74295;-88
2023/06/16 05:47:38;;;;;;;;;;;;;;;17.75;65.77;100727.16;105456;1299;67620;-87
2023/06/16 05:50:24;;;;;;;;;;;;;;;17.75;65.67;100724.73;105477;1298;71333;-88
2023/06/16 05:53:10;;;;;;;;;;;;;;;17.79;65.67;100726.84;105465;1298;59537;-88
2023/06/16 05:55:57;;;;;;;;;;;;;;;17.84;65.80;100728.52;105508;1300;60259;-89
2023/06/16 05:58:43;;;;;;;;;;;;;;;17.91;65.83;100731.39;105536;1299;75895;-88
2023/06/16 06:01:30;;;;;;;;;;;;;;;17.94;65.53;100731.58;105585;1297;67286;-88
2023/06/16 06:04:19;;;;;;;;;;;;;;;17.96;65.65;100732.20;105518;1299;71466;-88
2023/06/16 06:07:05;;;;;;;;;;;;;;;18.01;65.59;100730.39;105527;1298;59973;-88
2023/06/16 06:09:51;;;;;;;;;;;;;;;18.07;65.65;100734.32;105461;1299;59224;-88
2023/06/16 06:12:38;;;;;;;;;;;;;;;18.18;65.81;100735.89;105501;1298;75702;-88
2023/06/16 06:15:24;;;;;;;;;;;;;;;18.33;65.58;100736.75;105454;1299;72694;-88
2023/06/16 06:18:10;;;;;;;;;;;;;;;18.48;65.60;100736.73;105545;1297;72167;-89
2023/06/16 06:21:00;;;;;;;;;;;;;;;18.65;65.51;100737.21;105578;1299;59877;-89
2023/06/16 06:23:47;;;;;;;;;;;;;;;18.83;65.41;100739.82;105497;1298;59884;-88
2023/06/16 06:26:34;;;;;;;;;;;;;;;19.00;65.34;100741.11;105444;1299;75235;-89
2023/06/16 06:29:20;;;;;;;;;;;;;;;19.16;65.44;100741.16;105463;1297;68625;-88
2023/06/16 06:32:07;;;;;;;;;;;;;;;19.33;65.31;100738.22;105511;1297;71366;-88
2023/06/16 06:34:53;;;;;;;;;;;;;;;19.42;65.12;100741.23;105355;1299;59912;-89
2023/06/16 06:37:39;;;;;;;;;;;;;;;19.51;65.15;100741.52;105424;1298;59652;-88
2023/06/16 06:40:25;;;;;;;;;;;;;;;19.62;65.24;100740.77;105384;1299;74199;-88
2023/06/16 06:43:12;;;;;;;;;;;;;;;19.71;65.16;100745.23;105362;1300;67241;-88
2023/06/16 06:45:57;;;;;;;;;;;;;;;19.78;65.18;100744.32;105447;1299;71421;-88
2023/06/16 06:48:44;;;;;;;;;;;;;;;19.86;64.97;100744.59;105270;1299;59713;-88
2023/06/16 06:51:29;;;;;;;;;;;;;;;20.01;64.97;100742.38;105437;1300;59848;-88
2023/06/16 06:54:15;;;;;;;;;;;;;;;20.24;64.91;100742.54;105438;1297;75190;-89
2023/06/16 06:57:01;;;;;;;;;;;;;;;20.53;64.77;100741.48;105493;1299;67362;-88
2023/06/16 06:59:47;;;;;;;;;;;;;;;20.82;64.62;100744.07;105347;1298;71435;-89
2023/06/16 07:02:34;;;;;;;;;;;;;;;21.11;64.60;100743.09;105457;1297;60271;-89
2023/06/16 07:05:20;;;;;;;;;;;;;;;21.48;64.44;100744.27;105381;1299;60479;-89
2023/06/16 07:08:06;;;;;;;;;;;;;;;22.02;64.35;100751.84;105427;1299;75230;-89
2023/06/16 07:10:51;;;;;;;;;;;;;;;22.71;63.82;100751.38;105387;1299;67464;-89
2023/06/16 07:13:37;;;;;;;;;;;;;;;22.90;63.40;100751.01;105502;1297;71418;-89
2023/06/16 07:16:23;;;;;;;;;;;;;;;23.26;63.39;100755.81;105318;1300;60128;-90
2023/06/16 07:19:07;;;;;;;;;;;;;;;23.64;63.28;100752.90;105432;1297;61565;-91
2023/06/16 07:21:53;;;;;;;;;;;;;;;23.70;62.96;100750.20;105318;1299;75389;-90
2023/06/16 07:24:37;;;;;;;;;;;;;;;23.72;62.95;100753.58;105342;1299;67279;-90
2023/06/16 07:27:21;;;;;;;;;;;;;;;24.20;63.01;100752.52;105351;1298;72971;-90
2023/06/16 07:30:05;;;;;;;;;;;;;;;24.94;62.77;100750.79;105381;1300;60046;-90
2023/06/16 07:32:49;;;;;;;;;;;;;;;25.73;62.67;100751.05;105345;1299;59980;-90
2023/06/16 07:35:33;;;;;;;;;;;;;;;26.26;61.32;100754.05;105334;1297;75386;-90
2023/06/16 07:38:17;;;;;;;;;;;;;;;26.43;61.72;100754.38;105398;1299;68462;-91
2023/06/16 07:41:03;;;;;;;;;;;;;;;26.73;61.41;100754.73;105372;1298;70675;-90
2023/06/16 07:43:48;;;;;;;;;;;;;;;27.22;61.50;100754.34;105402;1300;59571;-90
2023/06/16 07:46:32;;;;;;;;;;;;;;;28.84;60.87;100758.25;105266;1297;60150;-91
2023/06/16 07:49:16;;;;;;;;;;;;;;;30.67;59.76;100750.20;105464;1299;73831;-91
2023/06/16 07:52:00;;;;;;;;;;;;;;;32.43;58.10;100751.55;105379;1299;67515;-91
2023/06/16 07:54:46;;;;;;;;;;;;;;;33.34;57.58;100748.54;105453;1298;73469;-91
2023/06/16 07:57:33;;;;;;;;;;;;;;;34.83;57.08;100744.58;105414;1300;60186;-91
2023/06/16 08:00:19;;;;;;;;;;;;;;;36.40;56.52;100743.27;105402;1300;60179;-91
2023/06/16 08:03:06;;;;;;;;;;;;;;;37.02;55.25;100740.80;105391;1299;75082;-91
2023/06/16 08:05:52;;;;;;;;;;;;;;;37.23;55.32;100739.39;105233;1299;68556;-91
2023/06/16 08:08:38;;;;;;;;;;;;;;;38.03;55.28;100734.31;105338;1297;71192;-92
2023/06/16 08:11:24;;;;;;;;;;;;;;;38.35;54.21;100738.04;105242;1300;60345;-90
2023/06/16 08:14:10;;;;;;;;;;;;;;;38.80;54.10;100741.85;105255;1299;59829;-89
2023/06/16 08:16:56;;;;;;;;;;;;;;;37.77;53.96;100741.89;105246;1299;75152;-89
2023/06/16 08:19:42;;;;;;;;;;;;;;;37.71;54.09;100734.66;105335;1299;67591;-90
2023/06/16 08:22:43;;;;;;;;;;;;;;;38.34;52.48;100730.42;105393;1299;71346;-90
2023/06/16 08:25:47;;;;;;;;;;;;;;;37.37;52.21;100736.34;105417;1298;59863;-88
2023/06/16 08:28:34;;;;;;;;;;;;;;;35.90;51.95;100731.33;105482;1300;60223;-89
2023/06/16 08:31:20;;;;;;;;;;;;;;;34.54;52.00;100728.61;105305;1299;74111;-89
2023/06/16 08:34:04;;;;;;;;;;;;;;;33.30;51.57;100730.80;105287;1297;68663;-88
2023/06/16 08:36:48;;;;;;;;;;;;;;;32.45;51.28;100729.02;105249;1300;71426;-88
2023/06/16 08:39:32;;;;;;;;;;;;;;;31.67;50.90;100727.05;105279;1299;60126;-88
2023/06/16 08:42:16;;;;;;;;;;;;;;;30.91;50.51;100725.02;105239;1302;60050;-88
2023/06/16 08:45:01;;;;;;;;;;;;;;;30.36;50.01;100721.23;105333;1300;75338;-88
2023/06/16 08:47:45;;;;;;;;;;;;;;;30.01;50.15;100718.96;105302;1299;67431;-88
2023/06/16 08:50:29;;;;;;;;;;;;;;;29.93;49.94;100718.63;105306;1301;71233;-88
2023/06/16 08:53:15;;;;;;;;;;;;;;;29.80;49.64;100720.05;105412;1299;59679;-88
2023/06/16 08:56:03;;;;;;;;;;;;;;;29.30;48.91;100717.46;105289;1299;59768;-90
2023/06/16 08:58:47;;;;;;;;;;;;;;;28.86;48.86;100720.54;105361;1300;75359;-89
2023/06/16 09:01:33;;;;;;;;;;;;;;;28.46;49.07;100724.36;105416;1299;67275;-90
2023/06/16 09:04:17;;;;;;;;;;;;;;;28.01;48.74;100722.25;105280;1301;71484;-89
2023/06/16 09:07:01;;;;;;;;;;;;;;;27.42;48.38;100721.86;105321;1297;59920;-89
2023/06/16 09:09:47;;;;;;;;;;;;;;;26.93;48.56;100716.29;105374;1299;60584;-89
2023/06/16 09:12:32;;;;;;;;;;;;;;;26.49;48.50;100718.80;105376;1299;74795;-89
2023/06/16 09:15:19;;;;;;;;;;;;;;;26.07;48.52;100719.17;105337;1299;69127;-89
2023/06/16 09:18:08;;;;;;;;;;;;;;;25.65;48.38;100715.63;105384;1298;72560;-89
2023/06/16 09:21:00;;;;;;;;;;;;;;;25.23;48.41;100716.19;105323;1300;60100;-89
2023/06/16 09:23:47;;;;;;;;;;;;;;;24.83;48.48;100719.56;105456;1299;59975;-89
2023/06/16 09:26:35;;;;;;;;;;;;;;;24.44;48.58;100721.54;105328;1298;74045;-89
2023/06/16 09:29:22;;;;;;;;;;;;;;;24.08;48.64;100721.84;105326;1297;73296;-89
2023/06/16 09:32:09;;;;;;;;;;;;;;;23.72;48.87;100718.38;105407;1297;70999;-89
2023/06/16 09:34:56;;;;;;;;;;;;;;;23.44;49.02;100712.35;105414;1297;59644;-89
2023/06/16 09:37:42;;;;;;;;;;;;;;;23.19;49.28;100713.41;105439;1297;59800;-88
2023/06/16 09:40:29;;;;;;;;;;;;;;;22.96;49.60;100712.48;105530;1297;74227;-88
2023/06/16 09:43:15;;;;;;;;;;;;;;;22.74;49.70;100712.67;105476;1297;67442;-89
2023/06/16 09:46:02;;;;;;;;;;;;;;;22.59;49.97;100713.63;105356;1297;71378;-89
2023/06/16 09:48:49;;;;;;;;;;;;;;;22.46;50.11;100714.95;105394;1297;60156;-89
2023/06/16 09:51:36;;;;;;;;;;;;;;;22.41;50.35;100715.14;105430;1297;59877;-88
2023/06/16 09:54:23;;;;;;;;;;;;;;;22.38;50.25;100719.34;105502;1297;75047;-90
2023/06/16 09:57:12;;;;;;;;;;;;;;;22.38;50.29;100720.09;105411;1299;70103;-90
2023/06/16 09:59:58;;;;;;;;;;;;;;;22.43;50.31;100712.21;105411;1297;72545;-89
2023/06/16 10:02:45;;;;;;;;;;;;;;;22.51;50.38;100714.64;105439;1297;59768;-89
2023/06/16 10:05:34;;;;;;;;;;;;;;;22.60;50.29;100710.58;105535;1300;59949;-90
2023/06/16 10:08:20;;;;;;;;;;;;;;;22.68;50.03;100706.34;105379;1297;74350;-90
2023/06/16 10:11:07;;;;;;;;;;;;;;;22.73;49.97;100705.69;105447;1299;67613;-89
2023/06/16 10:13:54;;;;;;;;;;;;;;;22.86;50.27;100699.73;105489;1297;74113;-88
2023/06/16 10:16:44;;;;;;;;;;;;;;;23.08;50.38;100696.17;105485;1297;59804;-90
2023/06/16 10:19:51;;;;;;;;;;;;;;;23.25;50.15;100696.23;105502;1297;59751;-90
2023/06/16 10:22:57;;;;;;;;;;;;;;;23.35;50.35;100694.02;105504;1297;74626;-90
2023/06/16 10:25:44;;;;;;;;;;;;;;;23.36;50.19;100697.10;105507;1297;67570;-89
2023/06/16 10:28:31;;;;;;;;;;;;;;;23.32;50.21;100689.48;105448;1297;72943;-88
2023/06/16 10:31:18;;;;;;;;;;;;;;;23.27;50.08;100686.45;105472;1297;60278;-89
2023/06/16 10:34:04;;;;;;;;;;;;;;;23.17;50.09;100684.15;105454;1297;59965;-88
2023/06/16 10:36:54;;;;;;;;;;;;;;;23.07;49.99;100681.27;105369;1297;74042;-88
2023/06/16 10:39:44;;;;;;;;;;;;;;;23.06;50.52;100683.44;105449;1297;69065;-88
2023/06/16 10:42:33;;;;;;;;;;;;;;;23.16;50.34;100681.95;105399;1297;72636;-89
2023/06/16 10:45:26;;;;;;;;;;;;;;;23.13;50.39;100684.41;105463;1297;59919;-88
2023/06/16 10:48:12;;;;;;;;;;;;;;;23.09;50.35;100686.06;105420;1297;60076;-89
2023/06/16 10:50:58;;;;;;;;;;;;;;;22.91;50.17;100686.95;105469;1297;74636;-88
2023/06/16 10:53:44;;;;;;;;;;;;;;;22.79;50.43;100686.16;105395;1297;67470;-88
2023/06/16 10:56:46;;;;;;;;;;;;;;;22.76;50.43;100680.88;105433;1297;71419;-88
2023/06/16 10:59:51;;;;;;;;;;;;;;;22.64;50.47;100683.45;105540;1297;59577;-88
2023/06/16 11:02:46;;;;;;;;;;;;;;;22.54;50.73;100678.48;105536;1297;60036;-88
2023/06/16 11:05:41;;;;;;;;;;;;;;;22.54;50.64;100675.52;105528;1297;74054;-88
2023/06/16 11:08:30;;;;;;;;;;;;;;;22.49;50.80;100672.99;105482;1299;67708;-88
2023/06/16 11:11:16;;;;;;;;;;;;;;;22.48;50.85;100673.95;105380;1297;73461;-88
2023/06/16 11:14:02;;;;;;;;;;;;;;;22.50;50.89;100676.43;105384;1300;59725;-88
2023/06/16 11:16:48;;;;;;;;;;;;;;;22.50;50.87;100677.36;105457;1297;59887;-88
2023/06/16 11:19:36;;;;;;;;;;;;;;;22.50;50.90;100677.15;105339;1297;75147;-88
2023/06/16 11:22:30;;;;;;;;;;;;;;;22.49;50.94;100669.48;105378;1297;69022;-89
2023/06/16 11:25:16;;;;;;;;;;;;;;;22.45;50.95;100666.91;105534;1297;72368;-89
2023/06/16 11:28:02;;;;;;;;;;;;;;;22.50;51.08;100668.17;105550;1297;59764;-89
2023/06/16 11:30:48;;;;;;;;;;;;;;;22.58;51.09;100664.13;105518;1300;59807;-89
2023/06/16 11:33:34;;;;;;;;;;;;;;;22.61;51.08;100663.07;105505;1297;75784;-89
2023/06/16 11:36:21;;;;;;;;;;;;;;;22.74;51.19;100660.13;105543;1297;69125;-89
2023/06/16 11:39:11;;;;;;;;;;;;;;;22.85;51.05;100654.29;105437;1298;71416;-89
2023/06/16 11:41:57;;;;;;;;;;;;;;;22.96;51.04;100653.34;105463;1298;59806;-89
2023/06/16 11:44:43;;;;;;;;;;;;;;;23.06;51.03;100655.52;105495;1297;59776;-89
2023/06/16 11:47:29;;;;;;;;;;;;;;;23.15;51.06;100655.45;105347;1297;74258;-89
2023/06/16 11:50:18;;;;;;;;;;;;;;;23.21;50.83;100655.02;105513;1297;67476;-89
2023/06/16 11:53:04;;;;;;;;;;;;;;;23.20;50.79;100650.48;105329;1297;203693;-89
2023/06/16 11:55:50;;;;;;;;;;;;;;;23.21;50.86;100649.80;105373;1296;59933;-89
2023/06/16 11:58:38;;;;;;;;;;;;;;;23.23;51.05;100644.02;105618;1297;59847;-89
2023/06/16 12:01:25;;;;;;;;;;;;;;;23.27;50.95;100646.16;105569;1297;74293;-89
2023/06/16 12:04:11;;;;;;;;;;;;;;;23.33;51.08;100647.14;105570;1297;67438;-89
2023/06/16 12:06:58;;;;;;;;;;;;;;;23.37;50.97;100640.52;105488;1298;72590;-89
2023/06/16 12:09:44;;;;;;;;;;;;;;;23.41;51.03;100646.23;105595;1297;59810;-89
2023/06/16 12:12:30;;;;;;;;;;;;;;;23.41;50.84;100640.05;105510;1297;59989;-89
2023/06/16 12:15:17;;;;;;;;;;;;;;;23.42;50.85;100639.11;105539;1297;75952;-89
2023/06/16 12:18:04;;;;;;;;;;;;;;;23.38;50.86;100638.91;105467;1298;67438;-89
2023/06/16 12:20:49;;;;;;;;;;;;;;;23.37;50.82;100637.23;105446;1298;72136;-89
2023/06/16 12:23:35;;;;;;;;;;;;;;;23.42;50.89;100640.02;105574;1297;59919;-89
2023/06/16 12:26:43;;;;;;;;;;;;;;;23.47;50.69;100637.56;105608;1296;59753;-89
2023/06/16 12:29:29;;;;;;;;;;;;;;;23.48;50.48;100638.40;105544;1297;74045;-89
2023/06/16 12:32:15;;;;;;;;;;;;;;;23.50;50.57;100636.27;105462;1297;68524;-89
2023/06/16 12:35:01;;;;;;;;;;;;;;;23.55;50.57;100638.09;105531;1296;71736;-89
2023/06/16 12:37:47;;;;;;;;;;;;;;;23.60;50.70;100637.16;105526;1297;60104;-89
2023/06/16 12:40:33;;;;;;;;;;;;;;;23.67;50.66;100633.16;105522;1296;59770;-89
2023/06/16 12:43:25;;;;;;;;;;;;;;;23.61;50.42;100635.89;105621;1297;74983;-89
2023/06/16 12:46:11;;;;;;;;;;;;;;;23.61;50.48;100637.48;105533;1297;68439;-90
2023/06/16 12:48:57;;;;;;;;;;;;;;;23.64;50.33;100632.88;105480;1296;71443;-90
2023/06/16 12:51:43;;;;;;;;;;;;;;;23.71;50.48;100627.81;105448;1297;59761;-89
2023/06/16 12:54:29;;;;;;;;;;;;;;;23.74;50.39;100618.94;105660;1297;59919;-89
2023/06/16 12:57:16;;;;;;;;;;;;;;;23.73;50.18;100620.10;105554;1296;75586;-89
2023/06/16 13:00:02;;;;;;;;;;;;;;;23.71;50.29;100619.55;105524;1297;67313;-89
2023/06/16 13:02:48;;;;;;;;;;;;;;;23.77;50.34;100619.94;105546;1297;71161;-89
2023/06/16 13:05:34;;;;;;;;;;;;;;;23.86;50.50;100613.88;105441;1297;60165;-89
2023/06/16 13:08:20;;;;;;;;;;;;;;;23.94;50.50;100614.83;105394;1297;60037;-89
2023/06/16 13:11:05;;;;;;;;;;;;;;;24.00;50.45;100609.83;105599;1297;74560;-89
2023/06/16 13:13:51;;;;;;;;;;;;;;;24.03;50.42;100610.18;105548;1297;67487;-89
2023/06/16 13:16:37;;;;;;;;;;;;;;;23.98;49.99;100609.42;105274;1297;72406;-89
2023/06/16 13:19:23;;;;;;;;;;;;;;;23.81;49.93;100607.58;105488;1297;60170;-89
2023/06/16 13:22:09;;;;;;;;;;;;;;;23.66;49.84;100606.98;105577;1297;59923;-89
2023/06/16 13:24:55;;;;;;;;;;;;;;;23.57;50.05;100608.57;105434;1300;74020;-89
2023/06/16 13:41:17;;;;;;;11.40;4.70;;;;;;;23.58;48.80;100601.26;105635;1284;613938;-88
2023/06/16 13:44:04;;;;;;;5.00;4.60;;;;;;;23.41;48.60;100595.36;105739;1282;192755;-88
2023/06/16 13:46:51;;;;;;;6.00;4.20;;;;;;;23.24;48.60;100589.75;105950;1285;59881;-88
2023/06/16 13:49:36;;;;;;;;;;;;;;;23.09;48.67;100584.77;105989;1282;73453;-89
2023/06/16 13:52:39;;;;;;;4.90;4.30;;;;;;;23.07;48.98;100579.79;106777;1282;67205;-88
2023/06/16 13:55:26;;;;;;;5.30;4.40;;;;;;;23.14;48.86;100577.26;106553;1282;72996;-88
2023/06/16 13:58:13;;;;;;;5.60;4.70;;;;;;;23.23;48.70;100578.20;106712;1282;57845;-88
2023/06/16 14:01:00;;;;;;;7.20;4.00;;;;;;;23.30;48.77;100579.07;106578;1281;60107;-88
2023/06/16 14:03:47;;;;;;;5.80;3.80;;;;;;;23.38;48.66;100579.94;106638;1282;72435;-89
2023/06/16 14:06:34;;;;;;;;;;;;;;;23.44;48.30;100580.59;106561;1282;66448;-89
2023/06/16 14:09:20;;;;;;;4.50;4.10;;;;;;;23.47;48.34;100582.15;106730;1282;72240;-88
2023/06/16 14:12:07;;;;;;;4.20;3.60;;;;;;;23.47;48.23;100580.02;106749;1282;58881;-88
2023/06/16 14:14:54;;;;;;;6.30;3.70;;;;;;;23.43;48.04;100579.77;106629;1282;58901;-88
2023/06/16 14:17:40;;;;;;;5.10;4.00;;;;;;;23.38;48.00;100579.91;106744;1281;71974;-88
2023/06/16 14:20:27;;;;;;;6.30;4.00;;;;;;;23.34;48.07;100587.14;106661;1282;68570;-88
2023/06/16 14:23:17;;;;;;;5.20;3.80;;;;;;;23.30;48.17;100591.63;106636;1282;72846;-88
2023/06/16 14:26:03;;;;;;;5.70;4.00;;;;;;;23.27;48.19;100591.46;105914;1285;59583;-87
2023/06/16 14:28:49;;;;;;;5.20;4.10;;;;;;;23.20;48.31;100590.34;105915;1283;61897;-87